createdAt,value
2023-01-07T00:00:42.473Z,82.52
2023-01-07T00:01:44.950Z,82.41
2023-01-07T00:02:49.000Z,82.60
2023-01-07T00:03:52.101Z,82.82
2023-01-07T00:04:54.576Z,83.16
2023-01-07T00:07:12.253Z,82.41
2023-01-07T00:08:14.235Z,82.00
2023-01-07T00:09:17.141Z,81.75
2023-01-07T00:10:19.737Z,81.50
2023-01-07T00:11:28.402Z,81.41
2023-01-07T00:12:30.332Z,81.51
2023-01-07T00:13:33.121Z,81.65
2023-01-07T00:14:35.022Z,82.05
2023-01-07T00:15:36.898Z,83.00
2023-01-07T00:16:40.078Z,82.43
2023-01-07T00:17:41.972Z,82.18
2023-01-07T00:18:45.969Z,82.23
2023-01-07T00:19:47.865Z,82.63
2023-01-07T00:20:49.966Z,82.71
2023-01-07T00:21:51.948Z,82.76
2023-01-07T00:22:53.829Z,83.02
2023-01-07T00:24:01.578Z,82.90
2023-01-07T00:25:04.706Z,83.09
2023-01-07T00:26:14.713Z,82.92
2023-01-07T00:27:16.759Z,83.08
2023-01-07T00:28:19.179Z,82.85
2023-01-07T00:29:21.098Z,83.47
2023-01-07T00:30:23.283Z,83.57
2023-01-07T00:31:31.303Z,83.31
2023-01-07T00:32:33.404Z,82.95
2023-01-07T00:33:35.388Z,83.50
2023-01-07T00:34:37.398Z,83.33
2023-01-07T00:35:39.369Z,83.10
2023-01-07T00:36:43.995Z,83.15
2023-01-07T00:37:46.847Z,83.11
2023-01-07T00:38:54.947Z,82.97
2023-01-07T00:39:56.948Z,82.80
2023-01-07T00:41:00.497Z,82.31
2023-01-07T00:42:03.487Z,82.03
2023-01-07T00:43:05.428Z,81.89
2023-01-07T00:44:07.567Z,82.11
2023-01-07T00:45:10.704Z,81.88
2023-01-07T00:46:15.121Z,82.02
2023-01-07T00:47:17.355Z,82.05
2023-01-07T00:48:19.645Z,83.07
2023-01-07T00:49:21.560Z,83.21
2023-01-07T00:50:27.152Z,82.53
2023-01-07T00:51:29.143Z,83.32
2023-01-07T00:52:31.082Z,83.34
2023-01-07T00:53:33.045Z,82.77
2023-01-07T00:54:34.920Z,82.51
2023-01-07T00:55:37.054Z,83.00
2023-01-07T00:56:39.238Z,82.85
2023-01-07T00:57:43.831Z,83.15
2023-01-07T00:58:46.098Z,83.69
2023-01-07T00:59:48.369Z,83.62
2023-01-07T01:00:56.025Z,83.31
2023-01-07T01:01:58.227Z,83.13
2023-01-07T01:03:00.321Z,82.81
2023-01-07T01:04:03.838Z,83.15
2023-01-07T01:05:06.991Z,82.80
2023-01-07T01:06:14.818Z,82.80
2023-01-07T01:07:16.876Z,82.73
2023-01-07T01:08:19.157Z,82.65
2023-01-07T01:09:21.222Z,82.51
2023-01-07T01:10:23.203Z,83.27
2023-01-07T01:11:25.064Z,83.04
2023-01-07T01:12:27.341Z,84.14
2023-01-07T01:13:29.269Z,83.89
2023-01-07T01:14:32.132Z,83.93
2023-01-07T01:15:35.170Z,84.46
2023-01-07T01:16:37.205Z,84.41
2023-01-07T01:17:39.807Z,84.21
2023-01-07T01:18:43.971Z,84.14
2023-01-07T01:19:46.019Z,84.29
2023-01-07T01:20:48.090Z,84.05
2023-01-07T01:21:49.975Z,84.03
2023-01-07T01:22:52.288Z,83.94
2023-01-07T01:23:54.185Z,83.88
2023-01-07T01:24:56.237Z,83.78
2023-01-07T01:26:04.867Z,83.72
2023-01-07T01:27:06.835Z,83.36
2023-01-07T01:28:08.844Z,83.56
2023-01-07T01:29:11.000Z,83.69
2023-01-07T01:30:13.220Z,83.61
2023-01-07T01:31:15.323Z,83.25
2023-01-07T01:32:17.340Z,83.01
2023-01-07T01:33:19.211Z,83.17
2023-01-07T01:34:21.141Z,84.02
2023-01-07T01:35:23.315Z,83.73
2023-01-07T01:36:25.936Z,83.67
2023-01-07T01:37:27.907Z,83.63
2023-01-07T01:38:30.495Z,83.87
2023-01-07T01:39:34.086Z,84.14
2023-01-07T01:40:36.404Z,84.13
2023-01-07T01:41:38.423Z,84.33
2023-01-07T01:42:40.529Z,83.95
2023-01-07T01:43:43.360Z,84.04
2023-01-07T01:44:49.038Z,84.43
2023-01-07T01:45:51.702Z,84.23
2023-01-07T01:46:54.129Z,84.16
2023-01-07T01:48:00.001Z,84.04
2023-01-07T01:49:11.219Z,84.21
2023-01-07T01:50:20.958Z,84.00
2023-01-07T01:51:26.660Z,84.65
2023-01-07T01:53:46.879Z,83.70
2023-01-07T01:54:52.518Z,83.47
2023-01-07T01:56:01.268Z,83.64
2023-01-07T01:57:08.854Z,83.71
2023-01-07T01:58:14.750Z,83.36
2023-01-07T01:59:20.218Z,83.18
2023-01-07T02:00:22.237Z,83.07
2023-01-07T02:01:25.219Z,82.96
2023-01-07T02:02:37.115Z,82.81
2023-01-07T02:03:39.399Z,82.69
2023-01-07T02:04:42.168Z,82.50
2023-01-07T02:05:45.784Z,82.22
2023-01-07T02:06:57.611Z,81.94
2023-01-07T02:08:00.208Z,81.58
2023-01-07T02:09:04.539Z,81.64
2023-01-07T02:10:14.028Z,81.60
2023-01-07T02:11:42.851Z,81.48
2023-01-07T02:13:11.364Z,81.34
2023-01-07T02:14:22.827Z,81.41
2023-01-07T02:15:26.634Z,81.87
2023-01-07T02:16:50.875Z,81.78
2023-01-07T02:18:30.552Z,81.75
2023-01-07T02:19:58.732Z,81.60
2023-01-07T02:21:38.262Z,81.26
2023-01-07T02:22:43.968Z,81.71
2023-01-07T02:24:04.945Z,82.14
2023-01-07T02:25:22.984Z,81.91
2023-01-07T02:26:40.995Z,81.66
2023-01-07T02:28:01.924Z,81.77
2023-01-07T02:29:27.882Z,81.81
2023-01-07T02:30:33.881Z,81.66
2023-01-07T02:32:05.755Z,81.32
2023-01-07T02:33:09.497Z,80.75
2023-01-07T02:34:20.949Z,80.77
2023-01-07T02:35:42.094Z,80.82
2023-01-07T02:38:23.905Z,80.84
2023-01-07T02:39:29.572Z,80.83
2023-01-07T02:40:47.105Z,80.46
2023-01-07T02:41:52.835Z,80.41
2023-01-07T02:43:13.439Z,80.72
2023-01-07T02:44:51.151Z,81.22
2023-01-07T02:46:24.433Z,81.11
2023-01-07T02:47:39.361Z,80.63
2023-01-07T02:48:41.620Z,80.56
2023-01-07T02:49:45.983Z,80.25
2023-01-07T02:50:48.058Z,80.48
2023-01-07T02:51:50.343Z,81.50
2023-01-07T02:52:52.412Z,81.68
2023-01-07T02:53:54.510Z,81.42
2023-01-07T02:55:06.548Z,81.43
2023-01-07T02:56:19.218Z,81.63
2023-01-07T02:57:27.757Z,81.82
2023-01-07T02:58:52.941Z,81.35
2023-01-07T03:01:30.701Z,80.70
2023-01-07T03:02:51.800Z,80.71
2023-01-07T03:04:27.595Z,81.61
2023-01-07T03:05:33.362Z,81.45
2023-01-07T03:06:41.962Z,81.38
2023-01-07T03:07:56.302Z,80.79
2023-01-07T03:09:01.981Z,80.28
2023-01-07T03:10:26.274Z,80.33
2023-01-07T03:11:31.959Z,80.06
2023-01-07T03:12:37.646Z,79.92
2023-01-07T03:13:57.358Z,80.14
2023-01-07T03:15:06.230Z,80.28
2023-01-07T03:16:25.368Z,80.39
2023-01-07T03:19:02.993Z,80.44
2023-01-07T03:20:07.241Z,80.20
2023-01-07T03:21:15.688Z,80.06
2023-01-07T03:22:21.644Z,79.96
2023-01-07T03:23:27.285Z,79.82
2023-01-07T03:24:31.803Z,79.91
2023-01-07T03:25:37.427Z,81.01
2023-01-07T03:26:49.269Z,81.05
2023-01-07T03:27:53.595Z,81.07
2023-01-07T03:28:58.617Z,80.81
2023-01-07T03:30:04.100Z,80.88
2023-01-07T03:31:09.820Z,80.80
2023-01-07T03:32:30.058Z,80.77
2023-01-07T03:33:38.676Z,80.63
2023-01-07T03:34:42.716Z,80.09
2023-01-07T03:35:48.386Z,79.92
2023-01-07T03:36:53.999Z,79.59
2023-01-07T03:38:00.818Z,79.38
2023-01-07T03:39:06.280Z,79.05
2023-01-07T03:40:11.449Z,79.16
2023-01-07T03:41:13.483Z,79.53
2023-01-07T03:42:19.166Z,80.07
2023-01-07T03:43:22.956Z,79.94
2023-01-07T03:44:26.451Z,79.74
2023-01-07T03:45:29.068Z,79.86
2023-01-07T03:46:33.596Z,79.63
2023-01-07T03:47:37.531Z,79.58
2023-01-07T03:48:39.456Z,79.61
2023-01-07T03:49:41.452Z,79.79
2023-01-07T03:50:43.675Z,80.33
2023-01-07T03:51:45.724Z,80.72
2023-01-07T03:52:48.478Z,80.66
2023-01-07T03:53:50.688Z,80.69
2023-01-07T03:54:52.557Z,81.04
2023-01-07T03:55:54.470Z,81.57
2023-01-07T03:56:56.438Z,81.41
2023-01-07T03:58:01.352Z,81.27
2023-01-07T03:59:03.429Z,81.12
2023-01-07T04:00:08.482Z,80.44
2023-01-07T04:01:10.538Z,80.38
2023-01-07T04:02:12.742Z,80.53
2023-01-07T04:03:14.817Z,80.54
2023-01-07T04:04:17.755Z,80.13
2023-01-07T04:05:19.770Z,79.84
2023-01-07T04:06:22.060Z,79.90
2023-01-07T04:07:24.047Z,79.94
2023-01-07T04:08:27.445Z,79.34
2023-01-07T04:09:29.312Z,79.21
2023-01-07T04:10:31.306Z,79.59
2023-01-07T04:11:33.418Z,79.79
2023-01-07T04:12:35.789Z,79.87
2023-01-07T04:13:37.804Z,79.80
2023-01-07T04:14:39.693Z,80.02
2023-01-07T04:15:41.565Z,80.83
2023-01-07T04:16:44.391Z,80.82
2023-01-07T04:17:46.429Z,80.93
2023-01-07T04:18:48.332Z,80.95
2023-01-07T04:19:50.231Z,80.74
2023-01-07T04:20:52.311Z,80.69
2023-01-07T04:21:54.196Z,80.92
2023-01-07T04:22:56.056Z,81.01
2023-01-07T04:23:57.937Z,80.60
2023-01-07T04:25:00.242Z,80.74
2023-01-07T04:26:02.417Z,80.71
2023-01-07T04:27:04.783Z,80.58
2023-01-07T04:28:07.199Z,80.64
2023-01-07T04:29:12.314Z,80.71
2023-01-07T04:30:15.016Z,80.95
2023-01-07T04:31:17.106Z,81.30
2023-01-07T04:32:19.085Z,81.71
2023-01-07T04:33:20.978Z,81.46
2023-01-07T04:34:23.624Z,81.20
2023-01-07T04:35:26.725Z,81.14
2023-01-07T04:36:29.272Z,81.49
2023-01-07T04:37:31.396Z,81.36
2023-01-07T04:38:33.405Z,81.30
2023-01-07T04:39:35.420Z,81.00
2023-01-07T04:40:37.439Z,81.19
2023-01-07T04:41:39.449Z,81.06
2023-01-07T04:42:41.649Z,80.85
2023-01-07T04:43:43.651Z,80.77
2023-01-07T04:44:45.705Z,80.68
2023-01-07T04:45:47.806Z,80.59
2023-01-07T04:46:49.930Z,80.52
2023-01-07T04:47:56.641Z,81.04
2023-01-07T04:48:58.568Z,81.11
2023-01-07T04:50:00.616Z,81.37
2023-01-07T04:51:03.783Z,81.80
2023-01-07T04:52:05.682Z,81.62
2023-01-07T04:53:08.135Z,81.72
2023-01-07T04:54:10.241Z,81.91
2023-01-07T04:55:12.118Z,81.89
2023-01-07T04:56:15.498Z,81.70
2023-01-07T04:57:17.576Z,81.49
2023-01-07T04:58:19.966Z,81.35
2023-01-07T04:59:22.367Z,81.42
2023-01-07T05:00:24.972Z,81.28
2023-01-07T05:01:27.031Z,80.89
2023-01-07T05:02:29.966Z,80.65
2023-01-07T05:03:32.783Z,80.39
2023-01-07T05:04:34.775Z,80.58
2023-01-07T05:05:38.416Z,80.55
2023-01-07T05:06:40.538Z,80.61
2023-01-07T05:07:42.735Z,80.88
2023-01-07T05:08:44.610Z,80.93
2023-01-07T05:09:46.699Z,80.73
2023-01-07T05:10:50.134Z,80.48
2023-01-07T05:11:52.036Z,80.33
2023-01-07T05:12:53.948Z,80.32
2023-01-07T05:13:59.428Z,80.46
2023-01-07T05:15:05.045Z,80.60
2023-01-07T05:16:07.440Z,80.62
2023-01-07T05:17:09.422Z,80.51
2023-01-07T05:18:11.631Z,80.55
2023-01-07T05:19:13.682Z,80.75
2023-01-07T05:20:17.054Z,80.81
2023-01-07T05:21:19.065Z,80.86
2023-01-07T05:22:21.214Z,80.90
2023-01-07T05:23:23.859Z,80.50
2023-01-07T05:24:25.747Z,80.52
2023-01-07T05:25:27.624Z,80.67
2023-01-07T05:26:30.365Z,80.69
2023-01-07T05:27:32.411Z,80.64
2023-01-07T05:28:34.819Z,80.81
2023-01-07T05:29:37.236Z,80.77
2023-01-07T05:30:39.716Z,81.19
2023-01-07T05:31:41.972Z,81.22
2023-01-07T05:32:44.064Z,81.31
2023-01-07T05:33:45.957Z,81.37
2023-01-07T05:34:47.834Z,81.63
2023-01-07T05:35:49.735Z,81.71
2023-01-07T05:36:51.815Z,81.63
2023-01-07T05:37:53.707Z,81.54
2023-01-07T05:38:55.603Z,81.36
2023-01-07T05:39:58.577Z,81.24
2023-01-07T05:41:00.597Z,81.09
2023-01-07T05:42:02.784Z,81.03
2023-01-07T05:43:04.676Z,80.96
2023-01-07T05:44:06.569Z,80.84
2023-01-07T05:45:09.631Z,81.05
2023-01-07T05:46:11.998Z,81.60
2023-01-07T05:47:14.058Z,81.67
2023-01-07T05:48:15.985Z,81.46
2023-01-07T05:49:18.632Z,81.55
2023-01-07T05:50:20.821Z,81.50
2023-01-07T05:51:22.821Z,81.28
2023-01-07T05:52:24.875Z,81.02
2023-01-07T05:53:26.947Z,80.90
2023-01-07T05:54:29.017Z,80.78
2023-01-07T05:55:30.992Z,80.80
2023-01-07T05:56:33.071Z,80.90
2023-01-07T05:57:34.947Z,80.81
2023-01-07T05:58:36.999Z,80.74
2023-01-07T05:59:39.091Z,80.80
2023-01-07T06:00:41.274Z,80.55
2023-01-07T06:01:43.143Z,80.47
2023-01-07T06:02:45.017Z,80.38
2023-01-07T06:03:46.978Z,80.21
2023-01-07T06:04:49.802Z,80.13
2023-01-07T06:05:52.548Z,80.08
2023-01-07T06:06:54.971Z,80.14
2023-01-07T06:07:56.938Z,79.92
2023-01-07T06:08:59.185Z,79.77
2023-01-07T06:10:02.901Z,79.77
2023-01-07T06:11:07.356Z,79.89
2023-01-07T06:12:10.159Z,79.67
2023-01-07T06:13:12.087Z,79.75
2023-01-07T06:14:14.595Z,79.72
2023-01-07T06:15:17.712Z,79.80
2023-01-07T06:16:20.736Z,79.80
2023-01-07T06:17:22.806Z,79.76
2023-01-07T06:18:24.946Z,79.86
2023-01-07T06:19:26.855Z,79.72
2023-01-07T06:20:29.010Z,79.74
2023-01-07T06:21:31.283Z,80.00
2023-01-07T06:22:33.166Z,79.93
2023-01-07T06:23:35.059Z,79.71
2023-01-07T06:24:37.245Z,79.77
2023-01-07T06:25:40.050Z,79.96
2023-01-07T06:26:42.361Z,80.10
2023-01-07T06:27:44.226Z,80.21
2023-01-07T06:28:46.258Z,80.29
2023-01-07T06:29:48.200Z,80.22
2023-01-07T06:30:50.439Z,79.85
2023-01-07T06:31:52.384Z,80.06
2023-01-07T06:32:54.261Z,80.14
2023-01-07T06:33:56.143Z,80.01
2023-01-07T06:34:58.065Z,79.91
2023-01-07T06:36:00.109Z,79.94
2023-01-07T06:37:02.575Z,80.15
2023-01-07T06:38:04.449Z,80.22
2023-01-07T06:39:06.358Z,80.19
2023-01-07T06:40:09.652Z,80.09
2023-01-07T06:41:13.348Z,79.99
2023-01-07T06:42:15.253Z,79.96
2023-01-07T06:43:17.138Z,79.78
2023-01-07T06:44:19.287Z,80.37
2023-01-07T06:45:21.472Z,80.64
2023-01-07T06:46:23.656Z,80.60
2023-01-07T06:47:25.742Z,80.68
2023-01-07T06:48:27.786Z,80.61
2023-01-07T06:49:29.715Z,80.71
2023-01-07T06:50:31.844Z,80.73
2023-01-07T06:51:33.921Z,80.71
2023-01-07T06:52:36.311Z,80.50
2023-01-07T06:53:38.345Z,80.51
2023-01-07T06:54:40.261Z,80.51
2023-01-07T06:55:50.818Z,80.30
2023-01-07T06:56:52.961Z,80.05
2023-01-07T06:57:54.845Z,79.93
2023-01-07T06:58:57.415Z,80.02
2023-01-07T06:59:59.419Z,80.02
2023-01-07T07:01:08.537Z,79.86
2023-01-07T07:02:19.625Z,79.85
2023-01-07T07:03:22.104Z,79.89
2023-01-07T07:04:24.894Z,79.58
2023-01-07T07:05:27.983Z,79.58
2023-01-07T07:06:30.948Z,79.44
2023-01-07T07:07:34.388Z,79.81
2023-01-07T07:08:36.675Z,79.91
2023-01-07T07:09:39.640Z,79.61
2023-01-07T07:10:41.682Z,79.15
2023-01-07T07:11:43.921Z,78.72
2023-01-07T07:12:46.110Z,78.31
2023-01-07T07:13:48.193Z,77.82
2023-01-07T07:14:50.152Z,77.60
2023-01-07T07:15:52.206Z,77.47
2023-01-07T07:16:54.347Z,77.43
2023-01-07T07:17:56.579Z,77.47
2023-01-07T07:18:58.565Z,77.35
2023-01-07T07:20:00.597Z,76.92
2023-01-07T07:21:02.827Z,76.79
2023-01-07T07:22:04.957Z,76.86
2023-01-07T07:23:06.952Z,76.72
2023-01-07T07:24:10.014Z,76.31
2023-01-07T07:25:12.332Z,76.17
2023-01-07T07:26:15.017Z,75.81
2023-01-07T07:27:17.131Z,76.05
2023-01-07T07:28:19.157Z,75.67
2023-01-07T07:29:21.898Z,75.57
2023-01-07T07:30:47.422Z,75.58
2023-01-07T07:31:29.516Z,75.80
2023-01-07T07:32:31.656Z,75.64
2023-01-07T07:33:34.077Z,75.27
2023-01-07T07:34:36.179Z,75.23
2023-01-07T07:35:38.163Z,75.42
2023-01-07T07:36:40.239Z,75.19
2023-01-07T07:37:42.235Z,75.21
2023-01-07T07:38:44.124Z,75.19
2023-01-07T07:39:46.032Z,74.82
2023-01-07T07:40:48.154Z,74.60
2023-01-07T07:41:50.051Z,74.62
2023-01-07T07:43:11.424Z,74.86
2023-01-07T07:43:55.864Z,75.05
2023-01-07T07:44:57.749Z,74.81
2023-01-07T07:45:59.617Z,74.70
2023-01-07T07:47:59.185Z,74.92
2023-01-07T07:49:01.365Z,74.77
2023-01-07T07:50:04.505Z,75.07
2023-01-07T07:51:06.919Z,75.53
2023-01-07T07:52:09.017Z,75.74
2023-01-07T07:53:10.907Z,75.99
2023-01-07T07:54:12.779Z,76.48
2023-01-07T07:55:20.723Z,76.65
2023-01-07T07:56:19.140Z,77.02
2023-01-07T07:57:21.007Z,77.08
2023-01-07T07:58:23.198Z,77.30
2023-01-07T07:59:25.309Z,77.66
2023-01-07T08:00:27.940Z,77.82
2023-01-07T08:01:33.938Z,78.00
2023-01-07T08:02:36.851Z,78.29
2023-01-07T08:03:38.852Z,78.43
2023-01-07T08:04:40.936Z,78.36
2023-01-07T08:05:44.838Z,78.50
2023-01-07T08:06:46.891Z,78.57
2023-01-07T10:14:46.874Z,78.79
2023-01-07T10:16:04.778Z,78.96
2023-01-07T10:17:17.224Z,78.91
2023-01-07T10:18:22.903Z,78.51
2023-01-07T10:19:47.255Z,78.36
2023-01-07T10:21:19.265Z,78.21
2023-01-07T10:22:25.742Z,78.37
2023-01-07T10:23:31.537Z,78.51
2023-01-07T10:24:37.435Z,78.24
2023-01-07T10:25:46.867Z,77.96
2023-01-07T10:26:52.723Z,77.60
2023-01-07T10:27:58.530Z,77.31
2023-01-07T10:29:13.680Z,77.55
2023-01-07T10:31:30.622Z,77.58
2023-01-07T10:32:34.308Z,77.56
2023-01-07T10:33:39.348Z,77.46
2023-01-07T10:34:44.167Z,77.16
2023-01-07T10:35:49.541Z,77.23
2023-01-07T10:37:07.142Z,77.36
2023-01-07T10:39:41.365Z,77.32
2023-01-07T10:40:49.933Z,77.32
2023-01-07T10:42:14.172Z,77.63
2023-01-07T10:43:41.262Z,77.81
2023-01-07T10:44:52.844Z,77.48
2023-01-07T10:46:05.029Z,77.51
2023-01-07T10:47:22.618Z,77.11
2023-01-07T10:48:45.121Z,77.02
2023-01-07T10:50:03.134Z,76.87
2023-01-07T10:51:18.092Z,76.93
2023-01-07T10:52:26.581Z,76.89
2023-01-07T10:53:32.273Z,76.38
2023-01-07T10:55:07.155Z,76.11
2023-01-07T10:56:37.574Z,76.33
2023-01-07T10:57:41.449Z,76.78
2023-01-07T10:58:45.685Z,76.58
2023-01-07T10:59:54.953Z,76.54
2023-01-07T11:00:57.816Z,76.50
2023-01-07T11:02:03.298Z,75.96
2023-01-07T11:03:12.031Z,75.89
2023-01-07T11:04:15.965Z,75.86
2023-01-07T11:05:18.971Z,75.37
2023-01-07T11:06:40.033Z,75.19
2023-01-07T11:07:45.877Z,74.93
2023-01-07T11:08:48.009Z,75.29
2023-01-07T11:09:51.899Z,75.14
2023-01-07T11:10:54.012Z,75.22
2023-01-07T11:11:59.576Z,75.91
2023-01-07T11:13:14.189Z,76.12
2023-01-07T11:14:22.590Z,76.33
2023-01-07T11:15:31.097Z,76.05
2023-01-07T11:17:56.215Z,75.74
2023-01-07T11:19:07.740Z,75.92
2023-01-07T11:20:10.475Z,76.53
2023-01-07T11:21:43.752Z,76.28
2023-01-07T11:22:29.674Z,76.10
2023-01-07T11:23:33.467Z,76.37
2023-01-07T11:24:36.497Z,76.30
2023-01-07T11:25:40.400Z,76.35
2023-01-07T11:26:43.151Z,76.21
2023-01-07T11:27:45.308Z,76.02
2023-01-07T11:28:53.898Z,76.19
2023-01-07T11:30:08.535Z,76.49
2023-01-07T11:31:12.284Z,76.74
2023-01-07T11:32:23.839Z,77.02
2023-01-07T11:34:01.351Z,77.05
2023-01-07T11:35:01.640Z,76.65
2023-01-07T11:36:05.775Z,76.30
2023-01-07T11:37:10.318Z,76.06
2023-01-07T11:38:30.685Z,75.90
2023-01-07T11:39:35.566Z,76.18
2023-01-07T11:40:38.829Z,76.26
2023-01-07T11:41:54.042Z,76.67
2023-01-07T11:43:05.592Z,76.69
2023-01-07T11:44:11.370Z,76.85
2023-01-07T11:45:25.886Z,76.84
2023-01-07T11:46:28.537Z,76.80
2023-01-07T11:47:31.153Z,76.55
2023-01-07T11:48:39.188Z,76.28
2023-01-07T11:49:45.056Z,76.37
2023-01-07T11:50:56.905Z,76.22
2023-01-07T11:51:58.998Z,76.52
2023-01-07T11:53:07.901Z,76.49
2023-01-07T11:54:19.638Z,76.52
2023-01-07T11:55:22.515Z,76.11
2023-01-07T11:56:28.026Z,75.42
2023-01-07T11:57:30.023Z,75.45
2023-01-07T11:58:38.415Z,75.72
2023-01-07T11:59:40.439Z,75.36
2023-01-07T12:00:42.501Z,75.37
2023-01-07T12:01:54.205Z,75.82
2023-01-07T12:03:05.143Z,76.42
2023-01-07T12:04:14.108Z,76.34
2023-01-07T12:05:25.524Z,76.21
2023-01-07T12:06:35.448Z,76.24
2023-01-07T12:07:38.035Z,75.83
2023-01-07T12:08:42.571Z,75.70
2023-01-07T12:09:45.642Z,75.57
2023-01-07T12:10:56.241Z,75.55
2023-01-07T12:12:01.841Z,75.56
2023-01-07T12:13:07.507Z,75.43
2023-01-07T12:14:18.987Z,74.99
2023-01-07T12:15:22.717Z,74.72
2023-01-07T12:16:27.959Z,74.36
2023-01-07T12:17:33.991Z,74.36
2023-01-07T12:18:48.515Z,74.60
2023-01-07T12:20:11.050Z,74.89
2023-01-07T12:21:34.690Z,75.00
2023-01-07T12:22:40.454Z,74.90
2023-01-07T12:24:12.060Z,74.85
2023-01-07T12:26:46.411Z,74.21
2023-01-07T12:28:01.323Z,74.20
2023-01-07T12:29:19.254Z,74.02
2023-01-07T12:30:25.168Z,73.68
2023-01-07T12:31:56.998Z,74.04
2023-01-07T12:33:13.026Z,74.37
2023-01-07T12:34:24.730Z,74.42
2023-01-07T12:35:33.679Z,74.64
2023-01-07T12:36:51.647Z,74.71
2023-01-07T12:38:05.401Z,74.51
2023-01-07T12:39:32.485Z,74.44
2023-01-07T12:40:55.491Z,74.52
2023-01-07T12:42:10.060Z,74.79
2023-01-07T12:43:34.001Z,74.79
2023-01-07T12:44:39.676Z,74.78
2023-01-07T12:45:48.405Z,74.92
2023-01-07T12:46:54.352Z,75.24
2023-01-07T12:48:02.961Z,75.49
2023-01-07T12:49:27.017Z,75.76
2023-01-07T12:50:38.814Z,76.01
2023-01-07T12:51:44.511Z,76.03
2023-01-07T12:52:58.565Z,76.07
2023-01-07T12:54:13.769Z,76.06
2023-01-07T12:55:19.561Z,75.90
2023-01-07T12:56:37.162Z,75.94
2023-01-07T12:57:41.588Z,75.76
2023-01-07T12:58:47.441Z,75.90
2023-01-07T13:00:24.067Z,76.07
2023-01-07T13:01:47.655Z,75.98
2023-01-07T13:02:59.135Z,76.10
2023-01-07T13:04:07.821Z,76.04
2023-01-07T13:05:22.405Z,76.07
2023-01-07T13:06:46.111Z,76.19
2023-01-07T13:09:20.045Z,76.09
2023-01-07T13:10:33.225Z,75.93
2023-01-07T13:11:55.301Z,75.59
2023-01-07T13:13:01.086Z,75.37
2023-01-07T13:14:04.988Z,75.47
2023-01-07T13:15:28.902Z,75.44
2023-01-07T13:16:31.588Z,75.60
2023-01-07T13:17:33.609Z,75.89
2023-01-07T13:18:36.453Z,75.79
2023-01-07T13:19:38.626Z,75.88
2023-01-07T13:20:59.544Z,75.77
2023-01-07T13:22:02.883Z,75.93
2023-01-07T13:23:05.337Z,75.86
2023-01-07T13:24:54.874Z,75.34
2023-01-07T13:27:29.746Z,75.54
2023-01-07T13:28:47.847Z,75.74
2023-01-07T13:30:02.822Z,75.73
2023-01-07T13:31:08.717Z,75.29
2023-01-07T13:32:35.461Z,75.19
2023-01-07T13:33:53.212Z,75.29
2023-01-07T13:35:20.128Z,75.35
2023-01-07T13:36:26.067Z,75.53
2023-01-07T13:37:55.537Z,75.59
2023-01-07T13:39:04.648Z,76.19
2023-01-07T13:40:33.485Z,76.28
2023-01-07T13:42:14.427Z,76.21
2023-01-07T13:43:29.458Z,76.14
2023-01-07T13:44:38.285Z,76.31
2023-01-07T13:45:42.621Z,76.71
2023-01-07T13:46:46.392Z,76.91
2023-01-07T13:47:52.138Z,76.79
2023-01-07T13:48:54.364Z,76.02
2023-01-07T13:49:59.647Z,75.84
2023-01-07T13:51:04.923Z,75.24
2023-01-07T13:52:21.758Z,75.00
2023-01-07T13:53:27.515Z,74.91
2023-01-07T13:54:51.599Z,75.06
2023-01-07T13:55:56.511Z,75.02
2023-01-07T13:57:01.494Z,75.07
2023-01-07T13:58:23.758Z,75.30
2023-01-07T13:59:31.014Z,75.50
2023-01-07T14:00:40.365Z,75.63
2023-01-07T14:02:15.475Z,75.51
2023-01-07T14:03:27.170Z,75.63
2023-01-07T14:04:34.902Z,75.62
2023-01-07T14:05:37.050Z,75.68
2023-01-07T14:06:42.157Z,75.77
2023-01-07T14:07:50.357Z,75.64
2023-01-07T14:09:09.321Z,75.54
2023-01-07T14:10:21.100Z,75.54
2023-01-07T14:11:32.593Z,75.62
2023-01-07T14:12:47.243Z,75.58
2023-01-07T14:14:01.506Z,75.50
2023-01-07T14:15:16.479Z,75.54
2023-01-07T14:16:34.379Z,75.47
2023-01-07T14:17:51.924Z,74.99
2023-01-07T14:19:09.890Z,75.29
2023-01-07T14:20:19.645Z,75.17
2023-01-07T14:21:44.063Z,75.38
2023-01-07T14:22:53.871Z,75.51
2023-01-07T14:24:02.371Z,75.84
2023-01-07T14:25:16.929Z,75.88
2023-01-07T14:26:44.674Z,75.78
2023-01-07T14:28:08.765Z,75.90
2023-01-07T14:29:20.635Z,76.10
2023-01-07T14:30:32.627Z,76.11
2023-01-07T14:31:35.832Z,75.83
2023-01-07T14:32:40.412Z,75.86
2023-01-07T14:33:50.385Z,76.12
2023-01-07T14:34:55.985Z,76.03
2023-01-07T14:36:01.283Z,75.94
2023-01-07T14:37:09.536Z,76.06
2023-01-07T14:38:33.426Z,76.15
2023-01-07T14:39:41.022Z,76.10
2023-01-07T14:40:46.985Z,76.22
2023-01-07T14:42:18.918Z,76.37
2023-01-07T14:44:52.483Z,76.57
2023-01-07T14:45:54.791Z,76.73
2023-01-07T14:46:57.536Z,76.76
2023-01-07T14:47:59.947Z,76.85
2023-01-07T14:49:05.589Z,76.95
2023-01-07T14:50:32.101Z,77.07
2023-01-07T14:51:58.699Z,77.09
2023-01-07T14:53:21.363Z,77.04
2023-01-07T14:54:48.671Z,77.02
2023-01-07T14:55:57.075Z,77.01
2023-01-07T14:57:36.931Z,77.05
2023-01-07T14:58:54.497Z,76.95
2023-01-07T15:00:34.439Z,77.01
2023-01-07T15:02:06.768Z,77.47
2023-01-07T15:03:18.432Z,77.60
2023-01-07T15:04:36.429Z,77.87
2023-01-07T15:06:12.557Z,77.98
2023-01-07T15:07:21.950Z,78.04
2023-01-07T15:08:27.763Z,78.29
2023-01-07T15:09:42.488Z,78.28
2023-01-07T15:10:49.891Z,78.44
2023-01-07T15:11:54.367Z,78.40
2023-01-07T15:13:01.151Z,78.40
2023-01-07T15:14:06.734Z,78.42
2023-01-07T15:15:27.812Z,78.34
2023-01-07T15:16:33.720Z,78.38
2023-01-07T15:17:41.436Z,78.56
2023-01-07T15:18:52.634Z,78.70
2023-01-07T15:19:56.468Z,78.78
2023-01-07T15:22:59.082Z,78.86
2023-01-07T15:24:29.518Z,78.85
2023-01-07T15:25:47.453Z,78.84
2023-01-07T15:27:13.873Z,78.94
2023-01-07T15:28:41.884Z,79.22
2023-01-07T15:29:56.684Z,79.24
2023-01-07T15:31:11.507Z,79.32
2023-01-07T15:32:25.772Z,79.43
2023-01-07T15:33:34.203Z,79.57
2023-01-07T15:34:38.573Z,79.59
2023-01-07T15:35:43.707Z,79.64
2023-01-07T15:36:49.697Z,79.69
2023-01-07T15:37:52.776Z,79.78
2023-01-07T15:38:57.350Z,79.82
2023-01-07T15:40:00.371Z,80.00
2023-01-07T15:41:02.626Z,80.07
2023-01-07T15:42:04.801Z,80.16
2023-01-07T15:43:10.796Z,80.41
2023-01-07T15:44:28.363Z,80.54
2023-01-07T15:45:29.992Z,80.60
2023-01-07T15:46:33.182Z,80.65
2023-01-07T15:47:39.838Z,80.69
2023-01-07T15:48:42.514Z,80.75
2023-01-07T15:49:44.393Z,80.75
2023-01-07T15:50:46.560Z,80.78
2023-01-07T15:51:54.204Z,80.88
2023-01-07T15:52:58.733Z,80.98
2023-01-07T15:54:00.648Z,81.04
2023-01-07T15:55:27.541Z,81.17
2023-01-07T15:56:29.937Z,81.24
2023-01-07T15:57:32.055Z,81.84
2023-01-07T15:58:39.840Z,81.68
2023-01-07T15:59:45.192Z,81.64
2023-01-07T16:00:53.754Z,81.61
2023-01-07T18:31:14.798Z,88.65
2023-01-07T18:32:16.845Z,88.83
2023-01-07T18:33:18.726Z,89.16
2023-01-07T18:34:20.727Z,89.24
2023-01-07T18:35:22.907Z,89.22
2023-01-07T18:36:26.461Z,89.25
2023-01-07T18:37:28.467Z,89.26
2023-01-07T18:38:30.348Z,88.74
2023-01-07T18:39:32.423Z,88.46
2023-01-07T18:40:35.805Z,88.40
2023-01-07T18:41:38.950Z,88.40
2023-01-07T18:42:40.859Z,88.28
2023-01-07T18:43:42.768Z,87.98
2023-01-07T18:44:44.935Z,87.85
2023-01-07T18:45:47.896Z,87.80
2023-01-07T18:46:50.006Z,87.73
2023-01-07T18:47:51.908Z,87.67
2023-01-07T18:48:53.962Z,87.73
2023-01-07T18:49:56.336Z,87.96
2023-01-07T18:50:59.427Z,88.11
2023-01-07T18:52:01.327Z,88.34
2023-01-07T18:53:03.215Z,88.32
2023-01-07T18:54:06.210Z,88.29
2023-01-07T18:55:10.190Z,88.16
2023-01-07T18:56:12.636Z,87.79
2023-01-07T18:57:14.777Z,87.74
2023-01-07T18:58:17.137Z,87.87
2023-01-07T18:59:19.963Z,88.11
2023-01-07T19:00:23.301Z,88.10
2023-01-07T19:01:25.605Z,87.92
2023-01-07T19:02:28.309Z,87.49
2023-01-07T19:03:30.668Z,87.47
2023-01-07T19:04:32.766Z,87.40
2023-01-07T19:05:37.207Z,87.23
2023-01-07T19:06:39.343Z,87.29
2023-01-07T19:07:42.155Z,87.35
2023-01-07T19:08:44.065Z,87.49
2023-01-07T19:09:46.151Z,87.35
2023-01-07T19:10:48.487Z,87.21
2023-01-07T19:11:50.369Z,87.27
2023-01-07T19:12:52.335Z,87.42
2023-01-07T19:13:54.223Z,87.45
2023-01-07T19:14:56.375Z,87.34
2023-01-07T19:15:58.255Z,87.32
2023-01-07T19:17:00.494Z,87.32
2023-01-07T19:18:02.776Z,87.31